createdAt,value
2022-11-28T00:00:46.687Z,474.67
2022-11-28T00:04:51.938Z,309.87
2022-11-28T00:14:53.700Z,334.27
2022-11-28T00:18:56.192Z,388.53
2022-11-28T00:23:05.349Z,363.43
2022-11-28T00:27:12.980Z,413.73
2022-11-28T00:31:36.026Z,468.17
2022-11-28T00:35:39.113Z,226.50
2022-11-28T00:39:40.970Z,476.43
2022-11-28T00:44:08.730Z,462.70
2022-11-28T00:48:23.634Z,280.53
2022-11-28T00:52:25.493Z,343.60
2022-11-28T00:56:33.697Z,94.07
2022-11-28T01:00:35.740Z,355.40
2022-11-28T01:04:37.636Z,29.63
2022-11-28T01:08:39.688Z,195.23
2022-11-28T01:12:41.585Z,124.67
2022-11-28T01:16:48.139Z,71.40
2022-11-28T01:20:51.372Z,29.63
2022-11-28T01:24:59.766Z,79.70
2022-11-28T01:29:02.908Z,39.80
2022-11-28T01:33:23.426Z,66.83
2022-11-28T01:37:30.127Z,129.20
2022-11-28T01:41:32.158Z,541.80
2022-11-28T01:46:44.356Z,131.07
2022-11-28T01:51:11.764Z,51.27
2022-11-28T01:55:20.867Z,179.60
2022-11-28T01:59:28.470Z,25.63
2022-11-28T02:03:50.409Z,25.53
2022-11-28T02:07:52.936Z,291.37
2022-11-28T02:12:09.712Z,74.27
2022-11-28T02:16:25.083Z,88.73
2022-11-28T02:20:42.057Z,59.50
2022-11-28T02:25:12.614Z,50.00
2022-11-28T02:29:36.432Z,33.17
2022-11-28T02:34:10.168Z,37.67
2022-11-28T02:38:44.487Z,61.13
2022-11-28T02:43:23.508Z,35.07
2022-11-28T02:48:07.626Z,38.37
2022-11-28T02:52:33.379Z,30.43
2022-11-28T02:57:03.399Z,40.73
2022-11-28T03:01:12.572Z,26.27
2022-11-28T03:05:34.257Z,35.37
2022-11-28T03:16:12.516Z,34.00
2022-11-28T03:20:23.023Z,34.93
2022-11-28T03:24:33.877Z,36.00
2022-11-28T03:28:44.682Z,25.10
2022-11-28T03:32:52.097Z,33.37
2022-11-28T03:37:00.113Z,30.20
2022-11-28T03:41:21.149Z,25.07
2022-11-28T03:45:26.638Z,27.77
2022-11-28T03:49:38.030Z,26.20
2022-11-28T03:53:46.016Z,29.03
2022-11-28T03:57:57.078Z,32.87
2022-11-28T04:02:43.388Z,26.03
2022-11-28T04:07:09.473Z,29.50
2022-11-28T04:11:21.077Z,40.03
2022-11-28T04:15:30.964Z,63.33
2022-11-28T04:19:38.740Z,194.10
2022-11-28T04:23:45.264Z,39.47
2022-11-28T04:28:20.371Z,137.93
2022-11-28T04:32:25.157Z,198.30
2022-11-28T04:36:32.296Z,53.57
2022-11-28T04:40:51.428Z,188.63
2022-11-28T04:45:06.585Z,131.73
2022-11-28T04:49:13.794Z,48.73
2022-11-28T04:53:42.537Z,30.93
2022-11-28T04:57:55.687Z,26.77
2022-11-28T05:02:04.512Z,42.97
2022-11-28T05:06:08.091Z,23.07
2022-11-28T05:10:11.635Z,36.30
2022-11-28T05:14:33.368Z,42.57
2022-11-28T05:18:35.260Z,30.87
2022-11-28T05:22:37.162Z,26.87
2022-11-28T05:26:39.278Z,30.10
2022-11-28T05:30:41.325Z,24.20
2022-11-28T05:34:43.437Z,26.77
2022-11-28T05:38:48.234Z,26.80
2022-11-28T05:42:50.408Z,24.03
2022-11-28T05:46:52.269Z,25.90
2022-11-28T05:50:56.416Z,26.33
2022-11-28T05:55:00.376Z,21.67
2022-11-28T05:59:02.282Z,23.43
2022-11-28T06:03:14.698Z,29.30
2022-11-28T06:07:20.006Z,23.53
2022-11-28T06:11:41.527Z,24.50
2022-11-28T06:15:47.673Z,21.10
2022-11-28T06:19:59.004Z,26.20
2022-11-28T06:24:03.206Z,27.77
2022-11-28T06:28:05.221Z,21.50
2022-11-28T06:32:07.629Z,21.53
2022-11-28T06:36:32.740Z,22.33
2022-11-28T06:41:04.329Z,21.97
2022-11-28T06:45:19.468Z,26.97
2022-11-28T06:49:25.780Z,33.30
2022-11-28T06:53:34.871Z,31.50
2022-11-28T06:57:39.036Z,22.60
2022-11-28T07:02:07.167Z,21.70
2022-11-28T07:06:34.892Z,23.07
2022-11-28T07:10:38.562Z,21.27
2022-11-28T07:14:42.641Z,31.47
2022-11-28T07:19:59.124Z,24.83
2022-11-28T07:24:01.071Z,23.87
2022-11-28T07:28:02.980Z,28.33
2022-11-28T07:32:06.044Z,29.10
2022-11-28T07:36:20.695Z,25.63
2022-11-28T07:40:24.057Z,26.37
2022-11-28T07:44:26.064Z,32.00
2022-11-28T07:48:29.251Z,21.20
2022-11-28T07:52:51.995Z,21.43
2022-11-28T07:57:20.509Z,19.27
2022-11-28T08:01:33.133Z,26.57
2022-11-28T08:06:02.879Z,22.80
2022-11-28T08:10:08.916Z,19.73
2022-11-28T08:14:11.115Z,21.70
2022-11-28T08:18:13.099Z,26.67
2022-11-28T08:22:15.066Z,19.63
2022-11-28T08:26:19.706Z,14.63
2022-11-28T08:30:21.618Z,19.03
2022-11-28T08:34:23.566Z,20.30
2022-11-28T08:39:09.847Z,21.60
2022-11-28T08:43:42.655Z,17.97
2022-11-28T08:48:15.509Z,17.57
2022-11-28T08:52:17.962Z,18.40
2022-11-28T08:56:19.975Z,20.23
2022-11-28T09:00:22.414Z,18.77
2022-11-28T09:04:24.640Z,15.93
2022-11-28T09:08:26.689Z,16.93
2022-11-28T09:12:30.730Z,19.90
2022-11-28T09:16:32.695Z,19.03
2022-11-28T09:21:21.863Z,16.40
2022-11-28T09:25:30.212Z,19.23
2022-11-28T09:29:59.530Z,19.10
2022-11-28T09:34:06.922Z,14.83
2022-11-28T09:38:08.823Z,15.53
2022-11-28T09:47:45.564Z,16.20
2022-11-28T09:52:05.211Z,17.50
2022-11-28T09:56:21.699Z,14.17
2022-11-28T10:01:05.925Z,15.40
2022-11-28T10:05:24.586Z,13.33
2022-11-28T10:15:26.749Z,16.40
2022-11-28T10:19:53.823Z,16.60
2022-11-28T10:24:03.760Z,17.03
2022-11-28T10:28:47.306Z,16.27
2022-11-28T10:33:09.852Z,15.10
2022-11-28T10:37:25.878Z,15.47
2022-11-28T10:41:43.100Z,18.27
2022-11-28T10:45:45.150Z,18.23
2022-11-28T10:50:06.026Z,18.83
2022-11-28T10:54:49.249Z,17.13
2022-11-28T10:59:10.903Z,17.97
2022-11-28T11:03:19.602Z,18.13
2022-11-28T11:07:33.272Z,15.37
2022-11-28T11:11:40.055Z,17.57
2022-11-28T11:15:56.303Z,14.53
2022-11-28T11:19:58.412Z,15.63
2022-11-28T11:24:31.451Z,17.73
2022-11-28T11:28:45.564Z,14.50
2022-11-28T11:32:51.631Z,15.23
2022-11-28T11:37:19.823Z,10.27
2022-11-28T11:46:56.520Z,16.30
2022-11-28T11:50:58.720Z,15.80
2022-11-28T11:55:57.279Z,13.57
2022-11-28T12:01:11.149Z,13.23
2022-11-28T12:06:13.374Z,15.63
2022-11-28T12:10:20.699Z,13.63
2022-11-28T12:14:34.636Z,12.83
2022-11-28T12:18:58.310Z,13.07
2022-11-28T12:23:23.113Z,14.37
2022-11-28T12:27:39.618Z,12.77
2022-11-28T12:32:24.670Z,12.67
2022-11-28T12:37:03.198Z,15.33
2022-11-28T12:42:01.130Z,15.13
2022-11-28T12:46:25.240Z,14.87
2022-11-28T12:50:59.515Z,12.63
2022-11-28T12:55:43.378Z,13.83
2022-11-28T13:00:03.599Z,13.03
2022-11-28T13:04:45.948Z,14.93
2022-11-28T13:09:17.718Z,14.80
2022-11-28T13:13:32.805Z,13.23
2022-11-28T13:18:03.765Z,13.97
2022-11-28T13:22:25.786Z,14.40
2022-11-28T13:26:59.128Z,11.47
2022-11-28T13:31:21.642Z,13.83
2022-11-28T13:35:50.775Z,15.27
2022-11-28T13:39:58.577Z,13.03
2022-11-28T13:44:38.055Z,14.90
2022-11-28T13:49:15.483Z,13.87
2022-11-28T13:53:46.195Z,11.80
2022-11-28T13:57:48.940Z,13.63
2022-11-28T14:02:32.654Z,11.37
2022-11-28T14:06:59.243Z,11.63
2022-11-28T14:11:11.471Z,15.00
2022-11-28T14:15:43.289Z,12.10
2022-11-28T14:20:09.321Z,10.83
2022-11-28T14:24:46.664Z,10.50
2022-11-28T14:28:52.767Z,13.23
2022-11-28T14:33:19.994Z,13.37
2022-11-28T14:37:24.711Z,11.37
2022-11-28T14:41:26.634Z,14.83
2022-11-28T14:45:43.911Z,16.17
2022-11-28T14:49:48.758Z,15.37
2022-11-28T14:54:23.399Z,12.70
2022-11-28T14:58:26.359Z,12.20
2022-11-28T15:03:08.969Z,12.90
2022-11-28T15:07:39.326Z,13.97
2022-11-28T15:12:08.335Z,11.00
2022-11-28T15:16:18.817Z,13.87
2022-11-28T15:24:52.035Z,16.07
2022-11-28T15:29:24.889Z,16.13
2022-11-28T15:33:28.491Z,18.27
2022-11-28T15:37:57.349Z,14.93
2022-11-28T15:43:02.191Z,18.30
2022-11-28T15:47:20.796Z,19.40
2022-11-28T15:51:31.283Z,22.20
2022-11-28T16:01:28.134Z,27.20
2022-11-28T16:05:30.088Z,34.70
2022-11-28T16:09:35.860Z,30.57
2022-11-28T16:13:40.378Z,28.93
2022-11-28T16:17:43.150Z,27.47
2022-11-28T16:21:58.412Z,36.97
2022-11-28T16:26:15.786Z,30.60
2022-11-28T16:30:59.331Z,32.67
2022-11-28T16:35:12.528Z,31.50
2022-11-28T16:39:16.892Z,33.87
2022-11-28T16:44:02.572Z,36.00
2022-11-28T16:49:00.322Z,33.63
2022-11-28T16:53:59.640Z,32.60
2022-11-28T16:58:20.641Z,35.40
2022-11-28T17:02:25.287Z,38.10
2022-11-28T17:06:34.349Z,32.30
2022-11-28T17:10:37.445Z,36.87
2022-11-28T17:14:39.357Z,35.60
2022-11-28T17:18:41.277Z,35.53
2022-11-28T17:22:46.972Z,41.03
2022-11-28T17:26:49.943Z,42.10
2022-11-28T17:31:29.600Z,41.07
2022-11-28T17:35:37.599Z,42.67
2022-11-28T17:40:02.668Z,42.77
2022-11-28T17:44:05.061Z,41.37
2022-11-28T17:48:07.936Z,40.33
2022-11-28T17:52:16.517Z,43.40
2022-11-28T17:56:18.467Z,37.53
2022-11-28T18:00:20.701Z,47.27
2022-11-28T18:04:23.113Z,44.97
2022-11-28T18:08:40.579Z,46.60
2022-11-28T18:12:42.743Z,45.30
2022-11-28T18:16:44.806Z,46.80
2022-11-28T18:20:52.611Z,42.43
2022-11-28T18:24:54.483Z,49.00
2022-11-28T18:28:57.580Z,46.17
2022-11-28T18:32:59.861Z,60.23
2022-11-28T18:37:54.843Z,58.50
2022-11-28T18:42:02.630Z,63.00
2022-11-28T18:46:47.276Z,52.47
2022-11-28T18:50:49.115Z,69.60
2022-11-28T18:54:57.582Z,62.33
2022-11-28T18:58:59.790Z,54.23
2022-11-28T19:03:03.070Z,59.87
2022-11-28T19:07:05.154Z,118.77
2022-11-28T19:11:26.249Z,123.23
2022-11-28T19:15:28.213Z,80.17
2022-11-28T19:19:56.378Z,112.03
2022-11-28T19:24:00.674Z,55.87
2022-11-28T19:28:08.472Z,63.13
2022-11-28T19:32:12.726Z,64.60
2022-11-28T19:36:15.453Z,77.13
2022-11-28T19:40:18.785Z,59.67
2022-11-28T19:44:21.994Z,56.37
2022-11-28T19:48:47.192Z,52.20
2022-11-28T19:52:51.512Z,73.57
2022-11-28T19:56:57.618Z,53.63
2022-11-28T20:01:18.884Z,44.33
2022-11-28T20:05:38.037Z,54.83
2022-11-28T20:09:41.521Z,67.43
2022-11-28T20:14:12.136Z,74.87
2022-11-28T20:18:15.187Z,59.20
2022-11-28T20:22:17.054Z,202.40
2022-11-28T20:26:22.936Z,230.93
2022-11-28T20:30:25.475Z,289.30
2022-11-28T20:34:28.007Z,59.80
2022-11-28T20:39:13.337Z,68.83
2022-11-28T20:43:16.428Z,42.10
2022-11-28T20:47:18.558Z,114.70
2022-11-28T20:52:21.536Z,189.80
2022-11-28T20:56:31.825Z,197.07
2022-11-28T21:01:05.434Z,211.80
2022-11-28T21:05:09.373Z,78.03
2022-11-28T21:09:12.690Z,63.80
2022-11-28T21:13:16.796Z,54.00
2022-11-28T21:17:46.868Z,257.67
2022-11-28T21:21:50.824Z,324.87
2022-11-28T21:25:52.747Z,299.20
2022-11-28T21:29:57.747Z,300.27
2022-11-28T21:40:00.531Z,67.20
2022-11-28T21:44:03.466Z,39.63
2022-11-28T21:48:11.653Z,99.47
2022-11-28T21:52:13.658Z,185.13
2022-11-28T21:56:15.545Z,143.93
2022-11-28T22:00:45.665Z,230.73
2022-11-28T22:04:42.026Z,64.03
2022-11-28T22:08:57.618Z,75.63
2022-11-28T22:13:00.381Z,55.33
2022-11-28T22:17:02.569Z,117.47
2022-11-28T22:21:22.343Z,90.60
2022-11-28T22:25:34.768Z,153.30
2022-11-28T22:29:37.679Z,422.27
2022-11-28T22:33:40.025Z,531.27
2022-11-28T22:37:42.122Z,315.33
2022-11-28T22:41:44.545Z,389.73
2022-11-28T22:45:59.990Z,380.07
2022-11-28T22:50:20.703Z,210.37
2022-11-28T22:54:24.875Z,82.07
2022-11-28T22:58:47.633Z,49.70
2022-11-28T23:03:15.414Z,98.03
2022-11-28T23:07:27.731Z,396.37
2022-11-28T23:11:36.479Z,388.93
2022-11-28T23:15:55.669Z,424.60
2022-11-28T23:19:59.353Z,438.03
2022-11-28T23:24:05.102Z,276.13
2022-11-28T23:28:11.473Z,318.17
2022-11-28T23:32:21.691Z,101.97
2022-11-28T23:37:16.907Z,291.80
2022-11-28T23:41:44.561Z,398.17
2022-11-28T23:45:47.657Z,177.50
2022-11-28T23:49:49.554Z,102.20
2022-11-28T23:53:51.632Z,104.43
2022-11-28T23:57:58.458Z,158.30
